sensor_id;sensor_type;location;lat;lon;timestamp;P1;durP1;ratioP1;P2;durP2;ratioP2
17959;SDS011;9105;53.552;9.980;2023-09-19T00:00:59;2.80;;;1.67;;
17959;SDS011;9105;53.552;9.980;2023-09-19T00:03:25;3.05;;;1.92;;
17959;SDS011;9105;53.552;9.980;2023-09-19T00:05:50;4.55;;;1.77;;
17959;SDS011;9105;53.552;9.980;2023-09-19T00:08:16;3.53;;;2.00;;
17959;SDS011;9105;53.552;9.980;2023-09-19T00:10:43;3.92;;;1.98;;
17959;SDS011;9105;53.552;9.980;2023-09-19T00:13:08;3.92;;;1.88;;
17959;SDS011;9105;53.552;9.980;2023-09-19T00:15:39;2.65;;;1.98;;
17959;SDS011;9105;53.552;9.980;2023-09-19T00:18:05;5.03;;;2.28;;
17959;SDS011;9105;53.552;9.980;2023-09-19T00:20:37;3.42;;;2.10;;
17959;SDS011;9105;53.552;9.980;2023-09-19T00:23:03;3.22;;;2.20;;
17959;SDS011;9105;53.552;9.980;2023-09-19T00:25:34;5.00;;;2.20;;
17959;SDS011;9105;53.552;9.980;2023-09-19T00:28:00;6.03;;;2.38;;
17959;SDS011;9105;53.552;9.980;2023-09-19T00:30:26;5.05;;;2.38;;
17959;SDS011;9105;53.552;9.980;2023-09-19T00:32:52;7.45;;;2.40;;
17959;SDS011;9105;53.552;9.980;2023-09-19T00:35:18;6.38;;;2.47;;
17959;SDS011;9105;53.552;9.980;2023-09-19T00:37:49;3.47;;;2.38;;
17959;SDS011;9105;53.552;9.980;2023-09-19T00:40:15;6.00;;;2.60;;
17959;SDS011;9105;53.552;9.980;2023-09-19T00:42:42;9.23;;;2.75;;
17959;SDS011;9105;53.552;9.980;2023-09-19T00:45:08;3.17;;;2.30;;
17959;SDS011;9105;53.552;9.980;2023-09-19T00:47:43;6.47;;;2.58;;
17959;SDS011;9105;53.552;9.980;2023-09-19T00:50:11;3.90;;;2.55;;
17959;SDS011;9105;53.552;9.980;2023-09-19T00:52:39;6.32;;;2.83;;
17959;SDS011;9105;53.552;9.980;2023-09-19T00:55:08;6.10;;;2.88;;
17959;SDS011;9105;53.552;9.980;2023-09-19T00:57:34;7.13;;;3.13;;
17959;SDS011;9105;53.552;9.980;2023-09-19T01:00:01;6.60;;;3.10;;
17959;SDS011;9105;53.552;9.980;2023-09-19T01:02:33;7.20;;;3.03;;
17959;SDS011;9105;53.552;9.980;2023-09-19T01:04:59;6.63;;;2.65;;
17959;SDS011;9105;53.552;9.980;2023-09-19T01:07:26;5.97;;;3.00;;
17959;SDS011;9105;53.552;9.980;2023-09-19T01:09:52;5.13;;;2.92;;
17959;SDS011;9105;53.552;9.980;2023-09-19T01:12:22;5.45;;;2.72;;
17959;SDS011;9105;53.552;9.980;2023-09-19T01:18:02;5.57;;;2.70;;
17959;SDS011;9105;53.552;9.980;2023-09-19T01:20:41;4.77;;;2.40;;
17959;SDS011;9105;53.552;9.980;2023-09-19T01:23:32;6.63;;;3.20;;
17959;SDS011;9105;53.552;9.980;2023-09-19T01:28:39;10.93;;;3.85;;
17959;SDS011;9105;53.552;9.980;2023-09-19T01:31:12;8.98;;;3.63;;
17959;SDS011;9105;53.552;9.980;2023-09-19T01:36:28;7.35;;;3.40;;
17959;SDS011;9105;53.552;9.980;2023-09-19T01:38:54;5.50;;;3.50;;
17959;SDS011;9105;53.552;9.980;2023-09-19T01:41:38;8.77;;;3.42;;
17959;SDS011;9105;53.552;9.980;2023-09-19T01:47:20;7.43;;;3.20;;
17959;SDS011;9105;53.552;9.980;2023-09-19T01:49:55;6.18;;;3.10;;
17959;SDS011;9105;53.552;9.980;2023-09-19T01:52:31;6.88;;;3.00;;
17959;SDS011;9105;53.552;9.980;2023-09-19T01:55:06;3.92;;;2.50;;
17959;SDS011;9105;53.552;9.980;2023-09-19T01:57:34;5.28;;;2.72;;
17959;SDS011;9105;53.552;9.980;2023-09-19T02:00:05;5.68;;;2.88;;
17959;SDS011;9105;53.552;9.980;2023-09-19T02:02:36;8.32;;;3.17;;
17959;SDS011;9105;53.552;9.980;2023-09-19T02:05:03;7.30;;;2.70;;
17959;SDS011;9105;53.552;9.980;2023-09-19T02:07:30;5.30;;;2.55;;
17959;SDS011;9105;53.552;9.980;2023-09-19T02:09:58;6.22;;;2.70;;
17959;SDS011;9105;53.552;9.980;2023-09-19T02:12:26;7.15;;;2.50;;
17959;SDS011;9105;53.552;9.980;2023-09-19T02:14:52;5.50;;;2.47;;
17959;SDS011;9105;53.552;9.980;2023-09-19T02:17:18;7.10;;;2.42;;
17959;SDS011;9105;53.552;9.980;2023-09-19T02:19:44;6.47;;;2.92;;
17959;SDS011;9105;53.552;9.980;2023-09-19T02:22:10;8.43;;;2.83;;
17959;SDS011;9105;53.552;9.980;2023-09-19T02:24:36;7.50;;;3.85;;
17959;SDS011;9105;53.552;9.980;2023-09-19T02:27:03;5.75;;;3.33;;
17959;SDS011;9105;53.552;9.980;2023-09-19T02:29:31;5.17;;;3.13;;
17959;SDS011;9105;53.552;9.980;2023-09-19T02:34:27;8.18;;;4.18;;
17959;SDS011;9105;53.552;9.980;2023-09-19T02:36:53;7.75;;;4.25;;
17959;SDS011;9105;53.552;9.980;2023-09-19T02:39:20;10.23;;;4.80;;
17959;SDS011;9105;53.552;9.980;2023-09-19T02:41:45;8.15;;;4.85;;
17959;SDS011;9105;53.552;9.980;2023-09-19T02:44:11;7.55;;;4.40;;
17959;SDS011;9105;53.552;9.980;2023-09-19T02:46:37;8.23;;;4.50;;
17959;SDS011;9105;53.552;9.980;2023-09-19T02:49:03;9.88;;;3.95;;
17959;SDS011;9105;53.552;9.980;2023-09-19T02:51:32;6.25;;;3.95;;
17959;SDS011;9105;53.552;9.980;2023-09-19T02:54:01;8.60;;;4.28;;
17959;SDS011;9105;53.552;9.980;2023-09-19T02:56:28;11.38;;;4.40;;
17959;SDS011;9105;53.552;9.980;2023-09-19T02:58:55;9.40;;;4.20;;
17959;SDS011;9105;53.552;9.980;2023-09-19T03:01:21;6.78;;;3.80;;
17959;SDS011;9105;53.552;9.980;2023-09-19T03:03:48;8.63;;;3.90;;
17959;SDS011;9105;53.552;9.980;2023-09-19T03:06:14;7.45;;;3.58;;
17959;SDS011;9105;53.552;9.980;2023-09-19T03:08:40;8.43;;;3.67;;
17959;SDS011;9105;53.552;9.980;2023-09-19T03:11:07;7.75;;;3.53;;
17959;SDS011;9105;53.552;9.980;2023-09-19T03:13:35;9.48;;;3.60;;
17959;SDS011;9105;53.552;9.980;2023-09-19T03:16:05;8.63;;;3.55;;
17959;SDS011;9105;53.552;9.980;2023-09-19T03:18:31;9.48;;;3.45;;
17959;SDS011;9105;53.552;9.980;2023-09-19T03:20:57;10.50;;;3.25;;
17959;SDS011;9105;53.552;9.980;2023-09-19T03:23:25;6.10;;;3.22;;
17959;SDS011;9105;53.552;9.980;2023-09-19T03:25:51;6.03;;;2.90;;
17959;SDS011;9105;53.552;9.980;2023-09-19T03:28:21;8.05;;;2.63;;
17959;SDS011;9105;53.552;9.980;2023-09-19T03:30:57;8.15;;;3.00;;
17959;SDS011;9105;53.552;9.980;2023-09-19T03:33:26;8.93;;;2.90;;
17959;SDS011;9105;53.552;9.980;2023-09-19T03:35:52;7.80;;;3.05;;
17959;SDS011;9105;53.552;9.980;2023-09-19T03:38:18;6.85;;;2.72;;
17959;SDS011;9105;53.552;9.980;2023-09-19T03:40:44;4.40;;;2.58;;
17959;SDS011;9105;53.552;9.980;2023-09-19T03:43:10;9.93;;;3.30;;
17959;SDS011;9105;53.552;9.980;2023-09-19T03:45:35;6.40;;;2.60;;
17959;SDS011;9105;53.552;9.980;2023-09-19T03:48:01;6.70;;;2.33;;
17959;SDS011;9105;53.552;9.980;2023-09-19T03:50:27;7.00;;;2.53;;
17959;SDS011;9105;53.552;9.980;2023-09-19T03:52:56;7.47;;;3.17;;
17959;SDS011;9105;53.552;9.980;2023-09-19T03:55:22;4.53;;;2.58;;
17959;SDS011;9105;53.552;9.980;2023-09-19T03:57:48;9.38;;;3.10;;
17959;SDS011;9105;53.552;9.980;2023-09-19T04:00:14;7.68;;;2.90;;
17959;SDS011;9105;53.552;9.980;2023-09-19T04:02:43;8.18;;;2.65;;
17959;SDS011;9105;53.552;9.980;2023-09-19T04:05:09;6.43;;;2.53;;
17959;SDS011;9105;53.552;9.980;2023-09-19T04:07:35;4.05;;;2.05;;
17959;SDS011;9105;53.552;9.980;2023-09-19T04:10:01;8.25;;;2.50;;
17959;SDS011;9105;53.552;9.980;2023-09-19T04:12:28;4.90;;;2.13;;
17959;SDS011;9105;53.552;9.980;2023-09-19T04:14:53;5.78;;;2.25;;
17959;SDS011;9105;53.552;9.980;2023-09-19T04:17:19;6.38;;;2.30;;
17959;SDS011;9105;53.552;9.980;2023-09-19T04:19:45;5.90;;;1.92;;
17959;SDS011;9105;53.552;9.980;2023-09-19T04:22:11;5.53;;;2.03;;
17959;SDS011;9105;53.552;9.980;2023-09-19T04:24:38;6.50;;;2.05;;
17959;SDS011;9105;53.552;9.980;2023-09-19T04:27:04;7.22;;;2.13;;
17959;SDS011;9105;53.552;9.980;2023-09-19T04:29:29;7.05;;;2.25;;
17959;SDS011;9105;53.552;9.980;2023-09-19T04:31:55;7.30;;;2.22;;
17959;SDS011;9105;53.552;9.980;2023-09-19T04:34:22;8.27;;;2.45;;
17959;SDS011;9105;53.552;9.980;2023-09-19T04:36:49;7.47;;;2.33;;
17959;SDS011;9105;53.552;9.980;2023-09-19T04:39:15;7.20;;;2.28;;
17959;SDS011;9105;53.552;9.980;2023-09-19T04:41:41;6.45;;;1.67;;
17959;SDS011;9105;53.552;9.980;2023-09-19T04:44:07;9.00;;;2.38;;
17959;SDS011;9105;53.552;9.980;2023-09-19T04:46:33;7.63;;;2.10;;
17959;SDS011;9105;53.552;9.980;2023-09-19T04:48:59;6.53;;;1.98;;
17959;SDS011;9105;53.552;9.980;2023-09-19T04:51:25;6.22;;;1.90;;
17959;SDS011;9105;53.552;9.980;2023-09-19T04:53:54;10.77;;;2.28;;
17959;SDS011;9105;53.552;9.980;2023-09-19T04:56:20;9.10;;;2.15;;
17959;SDS011;9105;53.552;9.980;2023-09-19T04:58:46;6.60;;;2.20;;
17959;SDS011;9105;53.552;9.980;2023-09-19T05:01:11;8.52;;;2.13;;
17959;SDS011;9105;53.552;9.980;2023-09-19T05:03:40;8.13;;;1.77;;
17959;SDS011;9105;53.552;9.980;2023-09-19T05:06:05;8.10;;;2.33;;
17959;SDS011;9105;53.552;9.980;2023-09-19T05:08:31;9.18;;;2.20;;
17959;SDS011;9105;53.552;9.980;2023-09-19T05:10:56;8.63;;;2.15;;
17959;SDS011;9105;53.552;9.980;2023-09-19T05:13:22;6.45;;;1.92;;
17959;SDS011;9105;53.552;9.980;2023-09-19T05:15:52;10.15;;;2.50;;
17959;SDS011;9105;53.552;9.980;2023-09-19T05:18:20;9.45;;;2.50;;
17959;SDS011;9105;53.552;9.980;2023-09-19T05:20:47;10.45;;;1.95;;
17959;SDS011;9105;53.552;9.980;2023-09-19T05:23:12;9.68;;;2.40;;
17959;SDS011;9105;53.552;9.980;2023-09-19T05:25:38;5.60;;;2.10;;
17959;SDS011;9105;53.552;9.980;2023-09-19T05:28:05;10.18;;;2.50;;
17959;SDS011;9105;53.552;9.980;2023-09-19T05:30:32;10.10;;;2.17;;
17959;SDS011;9105;53.552;9.980;2023-09-19T05:33:01;9.18;;;2.17;;
17959;SDS011;9105;53.552;9.980;2023-09-19T05:38:04;6.32;;;2.10;;
17959;SDS011;9105;53.552;9.980;2023-09-19T05:40:34;9.50;;;2.25;;
17959;SDS011;9105;53.552;9.980;2023-09-19T05:43:00;14.27;;;2.70;;
17959;SDS011;9105;53.552;9.980;2023-09-19T05:45:26;8.32;;;2.28;;
17959;SDS011;9105;53.552;9.980;2023-09-19T05:47:52;9.82;;;2.20;;
17959;SDS011;9105;53.552;9.980;2023-09-19T05:50:26;11.82;;;2.60;;
17959;SDS011;9105;53.552;9.980;2023-09-19T05:52:52;6.50;;;2.10;;
17959;SDS011;9105;53.552;9.980;2023-09-19T05:55:17;8.55;;;2.08;;
17959;SDS011;9105;53.552;9.980;2023-09-19T05:57:43;7.05;;;2.20;;
17959;SDS011;9105;53.552;9.980;2023-09-19T06:00:15;10.82;;;2.17;;
17959;SDS011;9105;53.552;9.980;2023-09-19T06:02:43;7.35;;;2.33;;
17959;SDS011;9105;53.552;9.980;2023-09-19T06:05:10;8.27;;;2.35;;
17959;SDS011;9105;53.552;9.980;2023-09-19T06:07:38;6.65;;;2.00;;
17959;SDS011;9105;53.552;9.980;2023-09-19T06:10:04;9.48;;;2.40;;
17959;SDS011;9105;53.552;9.980;2023-09-19T06:12:31;7.07;;;2.05;;
17959;SDS011;9105;53.552;9.980;2023-09-19T06:14:58;11.00;;;2.67;;
17959;SDS011;9105;53.552;9.980;2023-09-19T06:17:24;10.57;;;2.83;;
17959;SDS011;9105;53.552;9.980;2023-09-19T06:19:52;10.32;;;2.88;;
17959;SDS011;9105;53.552;9.980;2023-09-19T06:22:17;9.57;;;2.28;;
17959;SDS011;9105;53.552;9.980;2023-09-19T06:24:44;7.85;;;2.20;;
17959;SDS011;9105;53.552;9.980;2023-09-19T06:27:09;10.45;;;2.28;;
17959;SDS011;9105;53.552;9.980;2023-09-19T06:29:35;10.68;;;2.60;;
17959;SDS011;9105;53.552;9.980;2023-09-19T06:32:06;8.57;;;2.45;;
17959;SDS011;9105;53.552;9.980;2023-09-19T06:34:33;7.65;;;2.65;;
17959;SDS011;9105;53.552;9.980;2023-09-19T06:36:59;9.43;;;2.50;;
17959;SDS011;9105;53.552;9.980;2023-09-19T06:39:25;9.10;;;2.60;;
17959;SDS011;9105;53.552;9.980;2023-09-19T06:41:51;11.57;;;2.53;;
17959;SDS011;9105;53.552;9.980;2023-09-19T06:44:18;8.25;;;2.30;;
17959;SDS011;9105;53.552;9.980;2023-09-19T06:46:46;7.80;;;2.22;;
17959;SDS011;9105;53.552;9.980;2023-09-19T06:49:16;6.50;;;1.83;;
17959;SDS011;9105;53.552;9.980;2023-09-19T06:51:42;8.25;;;2.47;;
17959;SDS011;9105;53.552;9.980;2023-09-19T06:54:09;5.82;;;2.33;;
17959;SDS011;9105;53.552;9.980;2023-09-19T06:56:35;8.57;;;2.40;;
17959;SDS011;9105;53.552;9.980;2023-09-19T06:59:00;13.43;;;2.58;;
17959;SDS011;9105;53.552;9.980;2023-09-19T07:01:27;14.50;;;2.60;;
17959;SDS011;9105;53.552;9.980;2023-09-19T07:03:53;10.10;;;2.88;;
17959;SDS011;9105;53.552;9.980;2023-09-19T07:06:18;10.07;;;2.70;;
17959;SDS011;9105;53.552;9.980;2023-09-19T07:08:44;11.50;;;2.30;;
17959;SDS011;9105;53.552;9.980;2023-09-19T07:11:10;11.30;;;3.10;;
17959;SDS011;9105;53.552;9.980;2023-09-19T07:13:37;6.68;;;2.10;;
17959;SDS011;9105;53.552;9.980;2023-09-19T07:16:03;9.70;;;3.05;;
17959;SDS011;9105;53.552;9.980;2023-09-19T07:18:29;11.30;;;2.60;;
17959;SDS011;9105;53.552;9.980;2023-09-19T07:20:58;12.05;;;2.97;;
17959;SDS011;9105;53.552;9.980;2023-09-19T07:23:30;7.95;;;2.30;;
17959;SDS011;9105;53.552;9.980;2023-09-19T07:26:00;6.85;;;2.60;;
17959;SDS011;9105;53.552;9.980;2023-09-19T07:28:26;7.20;;;2.30;;
17959;SDS011;9105;53.552;9.980;2023-09-19T07:30:52;8.43;;;2.67;;
17959;SDS011;9105;53.552;9.980;2023-09-19T07:33:18;7.32;;;2.67;;
17959;SDS011;9105;53.552;9.980;2023-09-19T07:35:46;8.68;;;2.85;;
17959;SDS011;9105;53.552;9.980;2023-09-19T07:38:15;10.23;;;3.05;;
17959;SDS011;9105;53.552;9.980;2023-09-19T07:40:43;9.40;;;3.03;;
17959;SDS011;9105;53.552;9.980;2023-09-19T07:43:16;8.68;;;2.65;;
17959;SDS011;9105;53.552;9.980;2023-09-19T07:45:53;13.05;;;3.05;;
17959;SDS011;9105;53.552;9.980;2023-09-19T07:51:25;11.70;;;2.88;;
17959;SDS011;9105;53.552;9.980;2023-09-19T07:54:01;10.20;;;2.80;;
17959;SDS011;9105;53.552;9.980;2023-09-19T07:56:29;13.57;;;3.20;;
17959;SDS011;9105;53.552;9.980;2023-09-19T07:58:56;11.60;;;2.80;;
17959;SDS011;9105;53.552;9.980;2023-09-19T08:01:24;17.50;;;3.83;;
17959;SDS011;9105;53.552;9.980;2023-09-19T08:03:52;11.85;;;3.13;;
17959;SDS011;9105;53.552;9.980;2023-09-19T08:06:18;12.52;;;3.08;;
17959;SDS011;9105;53.552;9.980;2023-09-19T08:08:45;13.00;;;3.28;;
17959;SDS011;9105;53.552;9.980;2023-09-19T08:11:11;12.20;;;3.67;;
17959;SDS011;9105;53.552;9.980;2023-09-19T08:13:41;11.63;;;3.22;;
17959;SDS011;9105;53.552;9.980;2023-09-19T08:16:12;10.50;;;3.28;;
17959;SDS011;9105;53.552;9.980;2023-09-19T08:18:41;12.18;;;3.92;;
17959;SDS011;9105;53.552;9.980;2023-09-19T08:21:11;9.43;;;3.13;;
17959;SDS011;9105;53.552;9.980;2023-09-19T08:23:43;10.50;;;3.33;;
17959;SDS011;9105;53.552;9.980;2023-09-19T08:26:10;12.88;;;3.10;;
17959;SDS011;9105;53.552;9.980;2023-09-19T08:28:57;12.90;;;3.85;;
17959;SDS011;9105;53.552;9.980;2023-09-19T08:31:43;10.95;;;3.80;;
17959;SDS011;9105;53.552;9.980;2023-09-19T08:34:20;12.77;;;3.63;;
17959;SDS011;9105;53.552;9.980;2023-09-19T08:39:48;10.25;;;3.22;;
17959;SDS011;9105;53.552;9.980;2023-09-19T08:42:23;7.53;;;3.30;;
17959;SDS011;9105;53.552;9.980;2023-09-19T08:57:44;11.20;;;3.38;;
17959;SDS011;9105;53.552;9.980;2023-09-19T09:00:14;10.82;;;3.05;;
17959;SDS011;9105;53.552;9.980;2023-09-19T09:02:42;11.20;;;2.90;;
17959;SDS011;9105;53.552;9.980;2023-09-19T09:05:08;10.65;;;3.63;;
17959;SDS011;9105;53.552;9.980;2023-09-19T09:07:39;9.75;;;2.75;;
17959;SDS011;9105;53.552;9.980;2023-09-19T09:10:05;11.32;;;3.03;;
17959;SDS011;9105;53.552;9.980;2023-09-19T09:12:32;8.23;;;3.05;;
17959;SDS011;9105;53.552;9.980;2023-09-19T09:14:58;10.68;;;3.35;;
17959;SDS011;9105;53.552;9.980;2023-09-19T09:17:26;8.93;;;3.50;;
17959;SDS011;9105;53.552;9.980;2023-09-19T09:19:52;13.82;;;3.28;;
17959;SDS011;9105;53.552;9.980;2023-09-19T09:22:18;13.38;;;3.30;;
17959;SDS011;9105;53.552;9.980;2023-09-19T09:27:28;13.52;;;2.92;;
17959;SDS011;9105;53.552;9.980;2023-09-19T09:29:54;10.23;;;2.80;;
17959;SDS011;9105;53.552;9.980;2023-09-19T09:32:26;12.02;;;3.55;;
17959;SDS011;9105;53.552;9.980;2023-09-19T09:34:55;8.52;;;3.20;;
17959;SDS011;9105;53.552;9.980;2023-09-19T09:37:23;12.23;;;2.88;;
17959;SDS011;9105;53.552;9.980;2023-09-19T09:40:03;15.20;;;3.45;;
17959;SDS011;9105;53.552;9.980;2023-09-19T09:42:40;9.73;;;3.10;;
17959;SDS011;9105;53.552;9.980;2023-09-19T09:45:19;8.43;;;2.65;;
17959;SDS011;9105;53.552;9.980;2023-09-19T09:48:03;13.32;;;2.67;;
17959;SDS011;9105;53.552;9.980;2023-09-19T09:50:35;8.80;;;2.72;;
17959;SDS011;9105;53.552;9.980;2023-09-19T09:53:25;10.60;;;2.78;;
17959;SDS011;9105;53.552;9.980;2023-09-19T09:56:00;9.88;;;2.80;;
17959;SDS011;9105;53.552;9.980;2023-09-19T09:58:26;12.38;;;2.80;;
17959;SDS011;9105;53.552;9.980;2023-09-19T10:00:57;10.32;;;2.53;;
17959;SDS011;9105;53.552;9.980;2023-09-19T10:06:06;11.82;;;2.83;;
17959;SDS011;9105;53.552;9.980;2023-09-19T10:11:49;5.60;;;2.00;;
17959;SDS011;9105;53.552;9.980;2023-09-19T10:14:29;10.20;;;2.25;;
17959;SDS011;9105;53.552;9.980;2023-09-19T10:16:57;7.40;;;2.30;;
17959;SDS011;9105;53.552;9.980;2023-09-19T10:21:59;8.70;;;2.80;;
17959;SDS011;9105;53.552;9.980;2023-09-19T10:24:27;6.55;;;2.10;;
17959;SDS011;9105;53.552;9.980;2023-09-19T10:26:53;9.18;;;2.40;;
17959;SDS011;9105;53.552;9.980;2023-09-19T10:29:19;9.63;;;2.10;;
17959;SDS011;9105;53.552;9.980;2023-09-19T10:31:47;11.55;;;2.45;;
17959;SDS011;9105;53.552;9.980;2023-09-19T10:34:16;8.32;;;2.20;;
17959;SDS011;9105;53.552;9.980;2023-09-19T10:36:45;9.95;;;2.58;;
17959;SDS011;9105;53.552;9.980;2023-09-19T10:39:15;10.35;;;2.33;;
17959;SDS011;9105;53.552;9.980;2023-09-19T10:41:44;6.15;;;2.00;;
17959;SDS011;9105;53.552;9.980;2023-09-19T10:44:18;8.35;;;2.35;;
17959;SDS011;9105;53.552;9.980;2023-09-19T10:46:47;9.90;;;2.13;;
17959;SDS011;9105;53.552;9.980;2023-09-19T10:49:13;9.10;;;2.55;;
17959;SDS011;9105;53.552;9.980;2023-09-19T10:51:39;6.25;;;2.00;;
17959;SDS011;9105;53.552;9.980;2023-09-19T10:54:08;5.87;;;2.10;;
17959;SDS011;9105;53.552;9.980;2023-09-19T10:56:38;7.93;;;2.30;;
17959;SDS011;9105;53.552;9.980;2023-09-19T10:59:10;6.60;;;1.83;;
17959;SDS011;9105;53.552;9.980;2023-09-19T11:01:54;5.85;;;2.05;;
17959;SDS011;9105;53.552;9.980;2023-09-19T11:04:27;6.93;;;2.33;;
17959;SDS011;9105;53.552;9.980;2023-09-19T11:07:01;8.45;;;2.65;;
17959;SDS011;9105;53.552;9.980;2023-09-19T11:09:43;8.25;;;2.85;;
17959;SDS011;9105;53.552;9.980;2023-09-19T11:12:11;6.75;;;2.20;;
17959;SDS011;9105;53.552;9.980;2023-09-19T11:15:06;7.60;;;2.22;;
17959;SDS011;9105;53.552;9.980;2023-09-19T11:17:39;6.25;;;2.22;;
17959;SDS011;9105;53.552;9.980;2023-09-19T11:33:18;9.02;;;2.47;;
17959;SDS011;9105;53.552;9.980;2023-09-19T11:36:03;6.47;;;1.85;;
17959;SDS011;9105;53.552;9.980;2023-09-19T11:46:31;6.72;;;2.00;;
17959;SDS011;9105;53.552;9.980;2023-09-19T11:49:15;7.28;;;2.63;;
17959;SDS011;9105;53.552;9.980;2023-09-19T11:51:45;6.68;;;2.40;;
17959;SDS011;9105;53.552;9.980;2023-09-19T11:54:13;5.60;;;2.40;;
17959;SDS011;9105;53.552;9.980;2023-09-19T11:56:43;7.30;;;2.33;;
17959;SDS011;9105;53.552;9.980;2023-09-19T11:59:09;6.20;;;2.22;;
17959;SDS011;9105;53.552;9.980;2023-09-19T12:01:35;16.50;;;2.45;;
17959;SDS011;9105;53.552;9.980;2023-09-19T12:04:05;7.70;;;2.45;;
17959;SDS011;9105;53.552;9.980;2023-09-19T12:06:33;7.25;;;2.30;;
17959;SDS011;9105;53.552;9.980;2023-09-19T12:08:59;8.98;;;2.47;;
17959;SDS011;9105;53.552;9.980;2023-09-19T12:11:27;9.38;;;2.55;;
17959;SDS011;9105;53.552;9.980;2023-09-19T12:13:58;9.10;;;2.35;;
17959;SDS011;9105;53.552;9.980;2023-09-19T12:16:26;8.73;;;2.65;;
17959;SDS011;9105;53.552;9.980;2023-09-19T12:18:55;8.90;;;2.40;;
17959;SDS011;9105;53.552;9.980;2023-09-19T12:21:31;8.13;;;2.70;;
17959;SDS011;9105;53.552;9.980;2023-09-19T12:29:18;10.35;;;3.20;;
17959;SDS011;9105;53.552;9.980;2023-09-19T12:34:22;12.38;;;3.25;;
17959;SDS011;9105;53.552;9.980;2023-09-19T12:39:31;10.52;;;3.15;;
17959;SDS011;9105;53.552;9.980;2023-09-19T12:41:56;8.68;;;2.78;;
17959;SDS011;9105;53.552;9.980;2023-09-19T12:44:22;6.70;;;2.63;;
17959;SDS011;9105;53.552;9.980;2023-09-19T12:46:49;13.73;;;2.70;;
17959;SDS011;9105;53.552;9.980;2023-09-19T12:49:16;8.23;;;2.55;;
17959;SDS011;9105;53.552;9.980;2023-09-19T12:51:42;8.57;;;3.15;;
17959;SDS011;9105;53.552;9.980;2023-09-19T12:54:08;7.93;;;2.60;;
17959;SDS011;9105;53.552;9.980;2023-09-19T12:56:42;9.52;;;2.80;;
17959;SDS011;9105;53.552;9.980;2023-09-19T12:59:16;10.48;;;2.50;;
17959;SDS011;9105;53.552;9.980;2023-09-19T13:01:42;9.02;;;3.15;;
17959;SDS011;9105;53.552;9.980;2023-09-19T13:06:53;7.50;;;2.92;;
17959;SDS011;9105;53.552;9.980;2023-09-19T13:09:20;9.10;;;2.83;;
17959;SDS011;9105;53.552;9.980;2023-09-19T13:11:47;10.52;;;2.95;;
17959;SDS011;9105;53.552;9.980;2023-09-19T13:14:22;8.57;;;2.80;;
17959;SDS011;9105;53.552;9.980;2023-09-19T13:16:58;10.98;;;2.83;;
17959;SDS011;9105;53.552;9.980;2023-09-19T13:19:34;8.55;;;2.78;;
17959;SDS011;9105;53.552;9.980;2023-09-19T13:22:05;8.05;;;2.80;;
17959;SDS011;9105;53.552;9.980;2023-09-19T13:24:51;8.13;;;2.70;;
17959;SDS011;9105;53.552;9.980;2023-09-19T13:27:16;9.60;;;3.30;;
17959;SDS011;9105;53.552;9.980;2023-09-19T13:29:42;9.98;;;2.67;;
17959;SDS011;9105;53.552;9.980;2023-09-19T13:34:43;12.13;;;3.05;;
17959;SDS011;9105;53.552;9.980;2023-09-19T13:37:08;9.57;;;2.80;;
17959;SDS011;9105;53.552;9.980;2023-09-19T13:39:35;8.98;;;2.80;;
17959;SDS011;9105;53.552;9.980;2023-09-19T13:42:01;8.02;;;2.63;;
17959;SDS011;9105;53.552;9.980;2023-09-19T13:44:28;8.57;;;2.30;;
17959;SDS011;9105;53.552;9.980;2023-09-19T13:46:55;7.15;;;2.65;;
17959;SDS011;9105;53.552;9.980;2023-09-19T13:49:21;9.38;;;2.97;;
17959;SDS011;9105;53.552;9.980;2023-09-19T13:51:46;8.55;;;2.35;;
17959;SDS011;9105;53.552;9.980;2023-09-19T13:54:11;11.55;;;2.85;;
17959;SDS011;9105;53.552;9.980;2023-09-19T13:56:37;8.00;;;2.80;;
17959;SDS011;9105;53.552;9.980;2023-09-19T13:59:03;8.00;;;2.58;;
17959;SDS011;9105;53.552;9.980;2023-09-19T14:01:32;6.60;;;2.42;;
17959;SDS011;9105;53.552;9.980;2023-09-19T14:03:58;6.95;;;2.45;;
17959;SDS011;9105;53.552;9.980;2023-09-19T14:06:23;7.85;;;2.50;;
17959;SDS011;9105;53.552;9.980;2023-09-19T14:08:49;5.78;;;2.42;;
17959;SDS011;9105;53.552;9.980;2023-09-19T14:11:15;6.03;;;2.70;;
17959;SDS011;9105;53.552;9.980;2023-09-19T14:13:41;9.55;;;2.80;;
17959;SDS011;9105;53.552;9.980;2023-09-19T14:16:09;10.43;;;2.50;;
17959;SDS011;9105;53.552;9.980;2023-09-19T14:25:40;10.45;;;2.83;;
17959;SDS011;9105;53.552;9.980;2023-09-19T15:15:38;7.38;;;2.42;;
17959;SDS011;9105;53.552;9.980;2023-09-19T15:18:23;12.50;;;2.72;;
17959;SDS011;9105;53.552;9.980;2023-09-19T15:38:27;14.35;;;2.83;;
17959;SDS011;9105;53.552;9.980;2023-09-19T15:41:06;9.27;;;2.90;;
17959;SDS011;9105;53.552;9.980;2023-09-19T15:43:52;8.90;;;2.55;;
17959;SDS011;9105;53.552;9.980;2023-09-19T15:46:19;14.60;;;2.88;;
17959;SDS011;9105;53.552;9.980;2023-09-19T15:48:44;7.40;;;2.65;;
17959;SDS011;9105;53.552;9.980;2023-09-19T15:51:11;7.65;;;2.50;;
17959;SDS011;9105;53.552;9.980;2023-09-19T15:53:44;7.35;;;2.80;;
17959;SDS011;9105;53.552;9.980;2023-09-19T15:56:11;9.70;;;2.90;;
17959;SDS011;9105;53.552;9.980;2023-09-19T15:58:40;8.35;;;2.83;;
17959;SDS011;9105;53.552;9.980;2023-09-19T16:01:06;9.45;;;3.00;;
17959;SDS011;9105;53.552;9.980;2023-09-19T16:06:08;8.43;;;2.97;;
17959;SDS011;9105;53.552;9.980;2023-09-19T16:08:40;7.90;;;2.85;;
17959;SDS011;9105;53.552;9.980;2023-09-19T16:11:10;8.18;;;2.90;;
17959;SDS011;9105;53.552;9.980;2023-09-19T16:13:36;8.63;;;2.92;;
17959;SDS011;9105;53.552;9.980;2023-09-19T16:16:05;8.48;;;3.10;;
17959;SDS011;9105;53.552;9.980;2023-09-19T16:18:30;9.18;;;3.25;;
17959;SDS011;9105;53.552;9.980;2023-09-19T16:21:02;7.03;;;2.28;;
17959;SDS011;9105;53.552;9.980;2023-09-19T16:23:28;8.50;;;2.65;;
17959;SDS011;9105;53.552;9.980;2023-09-19T16:26:00;11.23;;;2.90;;
17959;SDS011;9105;53.552;9.980;2023-09-19T16:28:26;8.45;;;2.85;;
17959;SDS011;9105;53.552;9.980;2023-09-19T16:30:52;12.15;;;3.08;;
17959;SDS011;9105;53.552;9.980;2023-09-19T16:33:18;10.30;;;2.53;;
17959;SDS011;9105;53.552;9.980;2023-09-19T16:35:44;7.90;;;3.00;;
17959;SDS011;9105;53.552;9.980;2023-09-19T16:38:09;9.63;;;3.15;;
17959;SDS011;9105;53.552;9.980;2023-09-19T16:40:35;8.57;;;2.50;;
17959;SDS011;9105;53.552;9.980;2023-09-19T16:43:00;7.30;;;2.60;;
17959;SDS011;9105;53.552;9.980;2023-09-19T16:45:26;18.63;;;2.38;;
17959;SDS011;9105;53.552;9.980;2023-09-19T16:47:51;7.72;;;2.80;;
17959;SDS011;9105;53.552;9.980;2023-09-19T16:50:22;11.13;;;2.80;;
17959;SDS011;9105;53.552;9.980;2023-09-19T16:52:48;6.53;;;2.40;;
17959;SDS011;9105;53.552;9.980;2023-09-19T16:55:15;7.28;;;3.00;;
17959;SDS011;9105;53.552;9.980;2023-09-19T16:57:41;11.57;;;2.83;;
17959;SDS011;9105;53.552;9.980;2023-09-19T17:00:08;8.25;;;2.80;;
17959;SDS011;9105;53.552;9.980;2023-09-19T17:02:35;6.55;;;2.20;;
17959;SDS011;9105;53.552;9.980;2023-09-19T17:05:06;6.80;;;2.35;;
17959;SDS011;9105;53.552;9.980;2023-09-19T17:07:33;9.55;;;2.35;;
17959;SDS011;9105;53.552;9.980;2023-09-19T17:09:58;7.70;;;2.45;;
17959;SDS011;9105;53.552;9.980;2023-09-19T17:12:23;7.00;;;2.10;;
17959;SDS011;9105;53.552;9.980;2023-09-19T17:14:49;8.85;;;3.63;;
17959;SDS011;9105;53.552;9.980;2023-09-19T17:17:14;9.32;;;2.85;;
17959;SDS011;9105;53.552;9.980;2023-09-19T17:19:40;7.82;;;2.28;;
17959;SDS011;9105;53.552;9.980;2023-09-19T17:22:05;11.55;;;3.08;;
17959;SDS011;9105;53.552;9.980;2023-09-19T17:24:31;8.77;;;2.90;;
17959;SDS011;9105;53.552;9.980;2023-09-19T17:26:56;8.70;;;2.70;;
17959;SDS011;9105;53.552;9.980;2023-09-19T17:29:22;10.00;;;2.60;;
17959;SDS011;9105;53.552;9.980;2023-09-19T17:31:48;6.25;;;2.15;;
17959;SDS011;9105;53.552;9.980;2023-09-19T17:34:13;7.97;;;2.35;;
17959;SDS011;9105;53.552;9.980;2023-09-19T17:36:43;5.93;;;2.22;;
17959;SDS011;9105;53.552;9.980;2023-09-19T17:39:11;13.65;;;3.08;;
17959;SDS011;9105;53.552;9.980;2023-09-19T17:41:39;8.25;;;2.70;;
17959;SDS011;9105;53.552;9.980;2023-09-19T17:44:06;7.70;;;2.60;;